Time;durP1;ratioP1;P1;durP2;ratioP2;P2;SDS_P1;SDS_P2;PMS_P1;PMS_P2;Temp;Humidity;BMP_temperature;BMP_pressure;BME280_temperature;BME280_humidity;BME280_pressure;Samples;Min_cycle;Max_cycle;Signal;HPM_P1;HPM_P2
2023/06/02 00:02:33;;;;;;;9.55;6.90;;;;;;;;;;6298483;28;20291;-86
2023/06/02 00:05:35;;;;;;;9.98;7.07;;;;;;;;;;6300001;28;20064;-86
2023/06/02 00:08:40;;;;;;;9.30;6.38;;;;;;;;;;6298295;28;20053;-86
2023/06/02 00:11:41;;;;;;;11.65;7.15;;;;;;;;;;6304822;28;20056;-87
2023/06/02 00:14:43;;;;;;;8.40;5.85;;;;;;;;;;6296377;28;20063;-85
2023/06/02 00:17:45;;;;;;;10.45;6.20;;;;;;;;;;6298270;28;20060;-86
2023/06/02 00:20:47;;;;;;;9.32;6.55;;;;;;;;;;6300719;28;20363;-85
2023/06/02 00:23:50;;;;;;;8.25;6.22;;;;;;;;;;6292130;28;20056;-85
2023/06/02 00:26:53;;;;;;;9.90;6.57;;;;;;;;;;6296131;28;20068;-87
2023/06/02 00:29:54;;;;;;;10.65;6.45;;;;;;;;;;6297356;28;20048;-83
2023/06/02 00:32:56;;;;;;;9.88;6.32;;;;;;;;;;6299443;28;20072;-87
2023/06/02 00:35:58;;;;;;;13.63;6.70;;;;;;;;;;6297790;28;20260;-82
2023/06/02 00:39:02;;;;;;;8.63;5.80;;;;;;;;;;6298984;28;20060;-84
2023/06/02 00:42:06;;;;;;;8.30;6.30;;;;;;;;;;6298294;28;20060;-83
2023/06/02 00:45:09;;;;;;;9.20;6.82;;;;;;;;;;6297929;28;20320;-84
2023/06/02 00:48:11;;;;;;;7.25;5.00;;;;;;;;;;6301379;28;20044;-84
2023/06/02 00:51:12;;;;;;;7.43;4.57;;;;;;;;;;6299684;28;20071;-86
2023/06/02 00:54:16;;;;;;;7.60;4.63;;;;;;;;;;6300244;28;20056;-84
2023/06/02 00:57:18;;;;;;;5.85;3.83;;;;;;;;;;6300138;28;20052;-85
2023/06/02 01:00:20;;;;;;;4.95;3.75;;;;;;;;;;6301857;28;20060;-85
2023/06/02 01:03:24;;;;;;;5.10;3.70;;;;;;;;;;6298115;28;20543;-85
2023/06/02 01:06:34;;;;;;;7.57;4.18;;;;;;;;;;6296761;28;22366;-82
2023/06/02 01:09:37;;;;;;;5.47;3.78;;;;;;;;;;6302762;28;20054;-83
2023/06/02 01:12:39;;;;;;;6.93;3.95;;;;;;;;;;6298130;28;20121;-85
2023/06/02 01:15:40;;;;;;;6.93;4.00;;;;;;;;;;6302090;28;20111;-85
2023/06/02 01:18:45;;;;;;;6.05;3.78;;;;;;;;;;6297791;28;20383;-83
2023/06/02 01:21:57;;;;;;;4.75;3.65;;;;;;;;;;6301338;28;20071;-85
2023/06/02 01:25:01;;;;;;;5.83;3.40;;;;;;;;;;6296977;28;20106;-84
2023/06/02 01:28:04;;;;;;;4.15;3.33;;;;;;;;;;6303021;28;20068;-85
2023/06/02 01:31:09;;;;;;;6.18;4.07;;;;;;;;;;6299654;28;20072;-84
2023/06/02 01:34:15;;;;;;;3.92;3.20;;;;;;;;;;6300594;28;20052;-83
2023/06/02 01:37:17;;;;;;;4.65;3.47;;;;;;;;;;6299365;28;20041;-82
2023/06/02 01:40:20;;;;;;;5.78;3.53;;;;;;;;;;6295956;28;20063;-83
2023/06/02 01:43:22;;;;;;;4.90;3.25;;;;;;;;;;6299228;28;20052;-83
2023/06/02 01:46:24;;;;;;;4.10;3.20;;;;;;;;;;6296903;28;20048;-85
2023/06/02 01:49:25;;;;;;;4.68;3.50;;;;;;;;;;6305837;28;20058;-85
2023/06/02 01:52:27;;;;;;;5.05;3.80;;;;;;;;;;6300524;28;20089;-83
2023/06/02 01:55:30;;;;;;;5.28;3.47;;;;;;;;;;6310388;28;20060;-83
2023/06/02 01:58:32;;;;;;;4.80;3.30;;;;;;;;;;6305665;28;20090;-84
2023/06/02 02:01:34;;;;;;;4.10;3.28;;;;;;;;;;6304733;28;20129;-83
2023/06/02 02:04:35;;;;;;;4.15;3.10;;;;;;;;;;6303832;28;20262;-84
2023/06/02 02:07:41;;;;;;;3.90;3.00;;;;;;;;;;6303080;28;20063;-83
2023/06/02 02:10:44;;;;;;;5.05;3.90;;;;;;;;;;6307029;28;20113;-82
2023/06/02 02:13:46;;;;;;;3.88;2.97;;;;;;;;;;6302852;28;20321;-84
2023/06/02 02:16:49;;;;;;;5.13;3.28;;;;;;;;;;6306863;28;20056;-83
2023/06/02 02:19:51;;;;;;;4.10;3.05;;;;;;;;;;6310967;28;20049;-84
2023/06/02 02:22:53;;;;;;;3.85;2.60;;;;;;;;;;6304561;28;20075;-84
2023/06/02 02:25:56;;;;;;;4.15;2.85;;;;;;;;;;6300947;28;20076;-83
2023/06/02 02:28:57;;;;;;;5.10;3.33;;;;;;;;;;6301720;28;20048;-85
2023/06/02 02:32:00;;;;;;;3.88;3.15;;;;;;;;;;6307471;28;20367;-82
2023/06/02 02:35:02;;;;;;;7.38;3.58;;;;;;;;;;6308715;28;20090;-83
2023/06/02 02:38:05;;;;;;;5.20;3.10;;;;;;;;;;6304498;28;20048;-84
2023/06/02 02:41:08;;;;;;;4.65;3.05;;;;;;;;;;6297284;28;20339;-84
2023/06/02 02:44:10;;;;;;;4.90;2.80;;;;;;;;;;6303612;28;20045;-84
2023/06/02 02:47:12;;;;;;;5.60;3.38;;;;;;;;;;6304226;28;20045;-85
2023/06/02 02:50:13;;;;;;;4.65;3.03;;;;;;;;;;6306818;28;20236;-84
2023/06/02 02:53:16;;;;;;;3.80;2.80;;;;;;;;;;6302201;28;20102;-83
2023/06/02 02:56:22;;;;;;;4.45;2.85;;;;;;;;;;6302948;28;20064;-83
2023/06/02 02:59:23;;;;;;;4.45;2.78;;;;;;;;;;6302596;28;22192;-84
2023/06/02 03:02:25;;;;;;;5.43;2.97;;;;;;;;;;6307170;28;20044;-84
2023/06/02 03:05:27;;;;;;;4.32;3.00;;;;;;;;;;6300975;28;20330;-83
2023/06/02 03:08:28;;;;;;;5.22;3.20;;;;;;;;;;6301241;28;20130;-83
2023/06/02 03:11:31;;;;;;;4.70;2.88;;;;;;;;;;6306558;28;20111;-85
2023/06/02 03:14:33;;;;;;;5.72;3.25;;;;;;;;;;6302288;28;20081;-83
2023/06/02 03:17:37;;;;;;;3.75;3.13;;;;;;;;;;6307325;28;20056;-83
2023/06/02 03:20:38;;;;;;;;;;;;;;;;;;6303472;28;20048;-82
2023/06/02 03:23:41;;;;;;;5.88;3.38;;;;;;;;;;6303135;28;20608;-83
2023/06/02 03:26:44;;;;;;;5.00;2.90;;;;;;;;;;6301206;28;20057;-84
2023/06/02 03:29:46;;;;;;;6.05;3.13;;;;;;;;;;6297935;28;20102;-85
2023/06/02 03:32:47;;;;;;;4.38;3.10;;;;;;;;;;6301210;28;20089;-85
2023/06/02 03:35:49;;;;;;;4.05;2.85;;;;;;;;;;6304449;28;20044;-85
2023/06/02 03:38:51;;;;;;;4.70;3.20;;;;;;;;;;6302433;28;20044;-84
2023/06/02 03:41:54;;;;;;;5.43;3.17;;;;;;;;;;6300730;28;20068;-85
2023/06/02 03:44:55;;;;;;;6.65;3.53;;;;;;;;;;6302804;28;20048;-83
2023/06/02 03:47:57;;;;;;;5.32;3.60;;;;;;;;;;6301902;28;20056;-84
2023/06/02 03:50:59;;;;;;;6.10;3.78;;;;;;;;;;6303674;28;20044;-84
2023/06/02 03:54:00;;;;;;;5.68;4.40;;;;;;;;;;6301216;28;20063;-82
2023/06/02 03:57:04;;;;;;;6.63;4.15;;;;;;;;;;6303740;28;20037;-85
2023/06/02 04:00:10;;;;;;;6.22;4.00;;;;;;;;;;6306512;28;20060;-83
2023/06/02 04:03:12;;;;;;;11.30;4.72;;;;;;;;;;6302489;28;20044;-82
2023/06/02 04:06:14;;;;;;;6.45;4.90;;;;;;;;;;6300777;28;20259;-84
2023/06/02 04:09:16;;;;;;;6.65;4.70;;;;;;;;;;6301018;28;20090;-84
2023/06/02 04:12:19;;;;;;;7.70;5.00;;;;;;;;;;6299763;28;20355;-84
2023/06/02 04:15:20;;;;;;;6.40;4.80;;;;;;;;;;6297975;28;20097;-84
2023/06/02 04:18:22;;;;;;;8.13;5.82;;;;;;;;;;6299712;28;20052;-84
2023/06/02 04:21:24;;;;;;;9.55;5.03;;;;;;;;;;6301731;28;20071;-84
2023/06/02 04:24:26;;;;;;;8.10;5.25;;;;;;;;;;6298219;28;20047;-85
2023/06/02 04:27:29;;;;;;;11.57;5.90;;;;;;;;;;6304567;28;20775;-84
2023/06/02 04:30:30;;;;;;;10.35;5.47;;;;;;;;;;6302273;28;20064;-83
2023/06/02 04:33:32;;;;;;;7.05;5.03;;;;;;;;;;6301828;28;20052;-85
2023/06/02 04:36:36;;;;;;;8.85;5.10;;;;;;;;;;6300709;28;20052;-85
2023/06/02 04:39:38;;;;;;;9.80;5.97;;;;;;;;;;6302768;28;20128;-84
2023/06/02 04:42:41;;;;;;;9.77;5.30;;;;;;;;;;6302195;28;20087;-85
2023/06/02 04:45:44;;;;;;;9.60;5.70;;;;;;;;;;6301609;28;20098;-85
2023/06/02 04:48:47;;;;;;;7.95;5.45;;;;;;;;;;6299513;28;20104;-85
2023/06/02 04:51:49;;;;;;;11.70;5.87;;;;;;;;;;6304564;28;20056;-85
2023/06/02 04:54:51;;;;;;;8.25;5.13;;;;;;;;;;6299321;28;20094;-83
2023/06/02 04:57:54;;;;;;;10.10;5.35;;;;;;;;;;6302129;28;20084;-85
2023/06/02 05:00:55;;;;;;;9.68;5.22;;;;;;;;;;6299774;28;20096;-83
2023/06/02 05:03:57;;;;;;;9.18;5.00;;;;;;;;;;6301170;28;20056;-84
2023/06/02 05:06:59;;;;;;;6.35;5.03;;;;;;;;;;6296000;28;20036;-85
2023/06/02 05:10:00;;;;;;;8.50;5.47;;;;;;;;;;6304045;28;20080;-85
2023/06/02 05:13:04;;;;;;;5.85;4.75;;;;;;;;;;6300898;28;20134;-84
2023/06/02 05:16:05;;;;;;;10.57;4.88;;;;;;;;;;6300956;28;20049;-84
2023/06/02 05:19:07;;;;;;;6.50;4.78;;;;;;;;;;6298398;28;20059;-83
2023/06/02 05:22:09;;;;;;;8.38;4.80;;;;;;;;;;6303630;28;20094;-84
2023/06/02 05:25:11;;;;;;;7.28;4.88;;;;;;;;;;6305861;28;20048;-84
2023/06/02 05:28:14;;;;;;;8.88;4.70;;;;;;;;;;6305855;28;20060;-83
2023/06/02 05:31:15;;;;;;;7.28;5.20;;;;;;;;;;6305371;28;20328;-83
2023/06/02 05:34:17;;;;;;;8.95;5.25;;;;;;;;;;6305104;28;20048;-84
2023/06/02 05:37:19;;;;;;;7.80;5.13;;;;;;;;;;6305528;28;20052;-85
2023/06/02 05:40:21;;;;;;;9.70;5.63;;;;;;;;;;6302895;28;20053;-85
2023/06/02 05:43:24;;;;;;;7.60;4.78;;;;;;;;;;6304089;28;20082;-83
2023/06/02 05:46:26;;;;;;;6.65;5.18;;;;;;;;;;6303013;28;20052;-84
2023/06/02 05:49:27;;;;;;;7.75;5.00;;;;;;;;;;6302731;28;20118;-87
2023/06/02 05:52:29;;;;;;;8.43;5.30;;;;;;;;;;6304997;28;20141;-83
2023/06/02 05:55:31;;;;;;;7.80;5.10;;;;;;;;;;6302414;28;20146;-83
2023/06/02 05:58:37;;;;;;;8.82;5.55;;;;;;;;;;6300836;28;20275;-84
2023/06/02 06:01:39;;;;;;;8.98;5.30;;;;;;;;;;6306326;28;20378;-84
2023/06/02 06:04:41;;;;;;;7.70;5.85;;;;;;;;;;6300924;28;20052;-85
2023/06/02 06:07:43;;;;;;;9.50;5.25;;;;;;;;;;6304555;28;20055;-84
2023/06/02 06:10:44;;;;;;;6.70;5.07;;;;;;;;;;6304218;28;20090;-85
2023/06/02 06:13:47;;;;;;;12.13;4.88;;;;;;;;;;6302029;28;20087;-85
2023/06/02 06:16:49;;;;;;;7.45;6.05;;;;;;;;;;6304353;28;20109;-82
2023/06/02 06:19:51;;;;;;;8.10;5.68;;;;;;;;;;6302637;28;20226;-84
2023/06/02 06:22:52;;;;;;;6.57;5.18;;;;;;;;;;6305145;28;20048;-83
2023/06/02 06:25:54;;;;;;;7.28;5.22;;;;;;;;;;6302022;28;20064;-83
2023/06/02 06:28:57;;;;;;;8.00;5.30;;;;;;;;;;6302414;28;20044;-84
2023/06/02 06:31:59;;;;;;;9.60;6.20;;;;;;;;;;6303456;28;20048;-84
2023/06/02 06:35:01;;;;;;;7.07;5.28;;;;;;;;;;6302962;28;20052;-83
2023/06/02 06:38:03;;;;;;;7.80;5.50;;;;;;;;;;6300947;28;20065;-84
2023/06/02 06:41:05;;;;;;;7.43;6.18;;;;;;;;;;6306939;28;20098;-84
2023/06/02 06:44:08;;;;;;;9.43;6.15;;;;;;;;;;6303164;28;20059;-84
2023/06/02 06:47:10;;;;;;;8.50;5.90;;;;;;;;;;6302733;28;20048;-82
2023/06/02 06:50:14;;;;;;;10.35;6.10;;;;;;;;;;6303240;28;20060;-83
2023/06/02 06:53:15;;;;;;;9.20;6.35;;;;;;;;;;6302372;28;21649;-82
2023/06/02 06:56:17;;;;;;;8.15;6.03;;;;;;;;;;6306605;28;20052;-82
2023/06/02 06:59:20;;;;;;;7.40;5.93;;;;;;;;;;6304287;28;20045;-84
2023/06/02 07:02:22;;;;;;;6.10;5.10;;;;;;;;;;6298796;28;20102;-82
2023/06/02 07:05:23;;;;;;;5.93;5.07;;;;;;;;;;6302528;28;20225;-83
2023/06/02 07:08:25;;;;;;;7.00;5.00;;;;;;;;;;6302483;28;20056;-83
2023/06/02 07:11:27;;;;;;;7.47;5.72;;;;;;;;;;6306168;28;20393;-84
2023/06/02 07:14:30;;;;;;;9.02;5.10;;;;;;;;;;6304194;28;20052;-85
2023/06/02 07:17:31;;;;;;;6.32;5.28;;;;;;;;;;6298785;28;20244;-86
2023/06/02 07:20:33;;;;;;;9.27;5.30;;;;;;;;;;6301843;28;20044;-86
2023/06/02 07:23:35;;;;;;;12.02;5.50;;;;;;;;;;6299685;28;20102;-85
2023/06/02 07:26:37;;;;;;;6.38;4.80;;;;;;;;;;6291800;28;20053;-86
2023/06/02 07:29:40;;;;;;;9.57;5.07;;;;;;;;;;6301534;28;20061;-87
2023/06/02 07:32:42;;;;;;;8.70;5.30;;;;;;;;;;6299560;28;20057;-81
2023/06/02 07:35:44;;;;;;;6.82;4.72;;;;;;;;;;6300052;28;20052;-85
2023/06/02 07:38:46;;;;;;;6.22;4.55;;;;;;;;;;6296861;28;20056;-86
2023/06/02 07:41:47;;;;;;;6.75;4.95;;;;;;;;;;6299578;28;20059;-82
2023/06/02 07:44:50;;;;;;;6.57;5.00;;;;;;;;;;6299491;28;20405;-79
2023/06/02 07:47:52;;;;;;;7.22;5.10;;;;;;;;;;6298252;28;20052;-82
2023/06/02 07:50:54;;;;;;;6.40;4.60;;;;;;;;;;6304292;28;20337;-83
2023/06/02 07:53:56;;;;;;;7.22;5.03;;;;;;;;;;6300885;28;21086;-85
2023/06/02 07:56:57;;;;;;;9.55;5.13;;;;;;;;;;6302803;28;20063;-84
2023/06/02 08:00:09;;;;;;;6.47;4.82;;;;;;;;;;6301791;28;20352;-83
2023/06/02 08:03:11;;;;;;;6.10;4.90;;;;;;;;;;6300928;28;20078;-83
2023/06/02 08:06:13;;;;;;;6.50;4.85;;;;;;;;;;6300589;28;20051;-80
2023/06/02 08:09:15;;;;;;;7.10;5.20;;;;;;;;;;6299929;28;20236;-80
2023/06/02 08:12:17;;;;;;;6.30;5.07;;;;;;;;;;6304850;28;20048;-81
2023/06/02 08:15:20;;;;;;;6.68;4.97;;;;;;;;;;6299277;28;20048;-81
2023/06/02 08:18:22;;;;;;;5.82;5.00;;;;;;;;;;6297448;28;20090;-83
2023/06/02 08:21:23;;;;;;;6.03;5.07;;;;;;;;;;6299697;28;20037;-83
2023/06/02 08:24:26;;;;;;;7.22;4.80;;;;;;;;;;6298302;28;20076;-80
2023/06/02 08:27:28;;;;;;;6.13;4.68;;;;;;;;;;6298528;28;20052;-84
2023/06/02 08:30:31;;;;;;;6.95;5.00;;;;;;;;;;6300513;28;20578;-82
2023/06/02 08:33:35;;;;;;;8.43;4.93;;;;;;;;;;6299224;28;20263;-82
2023/06/02 08:36:36;;;;;;;5.20;4.38;;;;;;;;;;6297238;28;20056;-82
2023/06/02 08:39:38;;;;;;;7.07;4.88;;;;;;;;;;6300344;28;20056;-81
2023/06/02 08:42:41;;;;;;;7.22;4.40;;;;;;;;;;6295868;28;20056;-86
2023/06/02 08:45:44;;;;;;;5.22;4.72;;;;;;;;;;6298456;28;20060;-79
2023/06/02 08:48:47;;;;;;;7.03;4.97;;;;;;;;;;6298434;28;20102;-79
2023/06/02 08:51:48;;;;;;;;;;;;;;;;;;6300749;28;20108;-77
2023/06/02 08:54:51;;;;;;;6.70;5.20;;;;;;;;;;6300451;28;19924;-77
2023/06/02 08:57:52;;;;;;;7.82;4.80;;;;;;;;;;6297820;28;20320;-76
2023/06/02 09:00:55;;;;;;;6.97;4.97;;;;;;;;;;6298252;28;20048;-78
2023/06/02 09:03:57;;;;;;;5.90;5.40;;;;;;;;;;6300402;28;20138;-79
2023/06/02 09:07:19;;;;;;;9.25;5.63;;;;;;;;;;6302338;28;20067;-76
2023/06/02 09:10:41;;;;;;;7.70;5.20;;;;;;;;;;6296637;28;20056;-78
2023/06/02 09:13:42;;;;;;;6.05;5.45;;;;;;;;;;6298688;28;20347;-87
2023/06/02 09:16:45;;;;;;;6.33;5.23;;;;;;;;;;6299055;28;20075;-81
2023/06/02 09:19:51;;;;;;;6.65;4.90;;;;;;;;;;6300041;28;21023;-80
2023/06/02 09:22:55;;;;;;;6.43;5.53;;;;;;;;;;6298269;28;20060;-79
2023/06/02 09:25:56;;;;;;;6.63;5.28;;;;;;;;;;6300700;28;20058;-78
2023/06/02 09:29:06;;;;;;;7.18;5.72;;;;;;;;;;6299873;28;20100;-79
2023/06/02 09:32:14;;;;;;;6.80;5.13;;;;;;;;;;6300056;28;20047;-80
2023/06/02 09:35:34;;;;;;;7.32;5.38;;;;;;;;;;6299465;28;20314;-78
2023/06/02 09:38:43;;;;;;;6.15;4.85;;;;;;;;;;6301483;28;20059;-81
2023/06/02 09:41:45;;;;;;;6.53;5.80;;;;;;;;;;6301170;28;20052;-80
2023/06/02 09:45:05;;;;;;;7.40;6.68;;;;;;;;;;6300054;28;20072;-79
2023/06/02 09:48:19;;;;;;;8.80;5.60;;;;;;;;;;6300397;28;20052;-79
2023/06/02 09:51:22;;;;;;;9.18;6.13;;;;;;;;;;6303721;28;20044;-79
2023/06/02 09:54:24;;;;;;;7.93;6.40;;;;;;;;;;6299180;28;20115;-79
2023/06/02 09:57:26;;;;;;;;;;;;;;;;;;6301211;28;20052;-79
2023/06/02 10:00:27;;;;;;;7.97;6.47;;;;;;;;;;6298731;28;20196;-80
2023/06/02 10:03:30;;;;;;;12.82;6.05;;;;;;;;;;6300204;28;20040;-80
2023/06/02 10:06:53;;;;;;;7.50;6.00;;;;;;;;;;6298336;28;20118;-80
2023/06/02 10:10:05;;;;;;;9.00;8.10;;;;;;;;;;6304236;28;20097;-80
2023/06/02 10:13:25;;;;;;;9.98;7.65;;;;;;;;;;6303661;28;20045;-81
2023/06/02 10:16:36;;;;;;;8.25;6.65;;;;;;;;;;6302697;28;20340;-81
2023/06/02 10:19:52;;;;;;;7.57;6.53;;;;;;;;;;6305366;28;20048;-81
2023/06/02 10:23:28;;;;;;;9.48;7.20;;;;;;;;;;6304347;28;20060;-81
2023/06/02 10:26:41;;;;;;;9.05;7.75;;;;;;;;;;6292146;28;20074;-81
2023/06/02 10:29:45;;;;;;;9.38;7.40;;;;;;;;;;6303728;28;20446;-79
2023/06/02 10:32:48;;;;;;;9.68;7.22;;;;;;;;;;6302104;28;20048;-79
2023/06/02 10:35:59;;;;;;;9.43;6.88;;;;;;;;;;6305702;28;20053;-80
2023/06/02 10:39:31;;;;;;;9.80;7.18;;;;;;;;;;6300173;28;20289;-79
2023/06/02 10:42:33;;;;;;;11.73;6.97;;;;;;;;;;6304643;28;20044;-83
2023/06/02 10:45:41;;;;;;;8.63;7.13;;;;;;;;;;6299808;28;20037;-85
2023/06/02 10:48:42;;;;;;;9.13;7.60;;;;;;;;;;6303563;28;20072;-79
2023/06/02 10:52:06;;;;;;;8.90;7.18;;;;;;;;;;6303013;28;20060;-79
2023/06/02 10:55:28;;;;;;;7.93;7.10;;;;;;;;;;6300146;28;20051;-82
2023/06/02 10:58:48;;;;;;;7.70;6.93;;;;;;;;;;6302075;28;20056;-81
2023/06/02 11:01:51;;;;;;;8.23;5.90;;;;;;;;;;6303374;28;20475;-78
2023/06/02 11:04:53;;;;;;;6.25;5.40;;;;;;;;;;6302931;28;20079;-77
2023/06/02 11:08:27;;;;;;;8.73;5.82;;;;;;;;;;6302871;28;20056;-77
2023/06/02 11:11:53;;;;;;;11.10;5.55;;;;;;;;;;6302125;28;20048;-78
2023/06/02 11:15:15;;;;;;;8.40;5.32;;;;;;;;;;6303809;28;20052;-78
2023/06/02 11:18:42;;;;;;;6.53;5.30;;;;;;;;;;6292616;28;20075;-79
2023/06/02 11:21:44;;;;;;;6.20;4.70;;;;;;;;;;6307300;28;20102;-80
2023/06/02 11:24:47;;;;;;;5.90;4.80;;;;;;;;;;6303634;28;20087;-79
2023/06/02 11:27:49;;;;;;;8.02;5.75;;;;;;;;;;6308054;28;20283;-80
2023/06/02 11:31:05;;;;;;;7.13;5.03;;;;;;;;;;6300495;28;20048;-79
2023/06/02 11:34:15;;;;;;;5.63;5.00;;;;;;;;;;6304462;28;20082;-86
2023/06/02 11:37:20;;;;;;;6.78;5.28;;;;;;;;;;6309724;28;20052;-83
2023/06/02 11:40:23;;;;;;;7.05;4.75;;;;;;;;;;6304931;28;20052;-84
2023/06/02 11:43:25;;;;;;;7.57;5.32;;;;;;;;;;6301764;28;20056;-85
2023/06/02 11:46:26;;;;;;;6.55;4.85;;;;;;;;;;6299888;28;20328;-86
2023/06/02 11:49:37;;;;;;;7.10;5.40;;;;;;;;;;6302470;28;20355;-87
2023/06/02 11:52:39;;;;;;;6.20;4.82;;;;;;;;;;6304022;28;20118;-85
2023/06/02 11:55:42;;;;;;;5.10;4.60;;;;;;;;;;6307396;28;20063;-84
2023/06/02 11:58:45;;;;;;;6.07;5.15;;;;;;;;;;6303063;28;20522;-85
2023/06/02 12:01:48;;;;;;;;;;;;;;;;;;6299924;28;20233;-86
2023/06/02 12:04:50;;;;;;;6.15;4.90;;;;;;;;;;6303526;28;19924;-87
2023/06/02 12:07:51;;;;;;;6.80;4.68;;;;;;;;;;6304918;28;20550;-87
2023/06/02 12:10:57;;;;;;;7.05;5.28;;;;;;;;;;6304688;27;20052;-88
2023/06/02 12:14:01;;;;;;;6.65;5.43;;;;;;;;;;6296754;28;20106;-85
2023/06/02 12:17:04;;;;;;;6.03;5.25;;;;;;;;;;6302685;28;20060;-84
2023/06/02 12:20:07;;;;;;;7.43;4.72;;;;;;;;;;6307653;28;20056;-86
2023/06/02 12:23:10;;;;;;;5.40;4.82;;;;;;;;;;6303983;28;20060;-85
2023/06/02 12:26:13;;;;;;;5.13;4.60;;;;;;;;;;6302153;28;20066;-85
2023/06/02 12:29:14;;;;;;;6.15;5.35;;;;;;;;;;6310704;28;20052;-85
2023/06/02 12:32:25;;;;;;;6.30;5.10;;;;;;;;;;6302578;28;20052;-84
2023/06/02 12:35:27;;;;;;;8.68;4.68;;;;;;;;;;6306487;28;20063;-85
2023/06/02 12:38:29;;;;;;;6.22;5.25;;;;;;;;;;6303363;28;20056;-85
2023/06/02 12:41:32;;;;;;;4.65;4.18;;;;;;;;;;6304684;28;20360;-83
2023/06/02 12:44:33;;;;;;;4.85;4.25;;;;;;;;;;6305001;28;20078;-84
2023/06/02 12:47:35;;;;;;;5.90;4.40;;;;;;;;;;6306351;28;20060;-87
2023/06/02 12:50:37;;;;;;;6.57;4.28;;;;;;;;;;6303730;28;20056;-85
2023/06/02 12:53:38;;;;;;;6.13;5.00;;;;;;;;;;6298048;28;20060;-87
2023/06/02 12:56:42;;;;;;;6.13;4.97;;;;;;;;;;6298849;28;20067;-84
2023/06/02 12:59:44;;;;;;;5.50;4.90;;;;;;;;;;6299065;28;20048;-84
2023/06/02 13:02:46;;;;;;;7.50;4.93;;;;;;;;;;6297318;28;20056;-86
2023/06/02 13:05:57;;;;;;;6.32;5.72;;;;;;;;;;6300184;28;20055;-85
2023/06/02 13:08:59;;;;;;;5.72;5.10;;;;;;;;;;6298319;28;20056;-84
2023/06/02 13:12:02;;;;;;;7.20;5.18;;;;;;;;;;6299158;28;20053;-85
2023/06/02 13:15:05;;;;;;;10.57;5.40;;;;;;;;;;6300222;28;20054;-83
2023/06/02 13:18:07;;;;;;;5.90;5.25;;;;;;;;;;6302479;28;20448;-84
2023/06/02 13:21:09;;;;;;;7.50;5.18;;;;;;;;;;6298846;28;20055;-87
2023/06/02 13:24:11;;;;;;;5.88;4.60;;;;;;;;;;6297911;28;20232;-84
2023/06/02 13:27:14;;;;;;;5.68;5.15;;;;;;;;;;6297505;28;20162;-88
2023/06/02 13:30:17;;;;;;;5.60;4.28;;;;;;;;;;6301039;28;20048;-88
2023/06/02 13:33:19;;;;;;;6.07;4.70;;;;;;;;;;6299028;28;20041;-87
2023/06/02 13:36:20;;;;;;;4.90;4.50;;;;;;;;;;6297947;28;20056;-85
2023/06/02 13:39:22;;;;;;;5.35;4.82;;;;;;;;;;6297432;28;20228;-85
2023/06/02 13:42:25;;;;;;;6.45;5.00;;;;;;;;;;6299442;28;20093;-83
2023/06/02 13:45:27;;;;;;;6.55;5.70;;;;;;;;;;6307299;28;20051;-88
2023/06/02 13:48:29;;;;;;;7.35;5.20;;;;;;;;;;6302324;28;20060;-85
2023/06/02 13:51:31;;;;;;;6.00;5.40;;;;;;;;;;6306633;28;20053;-88
2023/06/02 13:54:33;;;;;;;7.22;5.03;;;;;;;;;;6301567;28;20108;-87
2023/06/02 13:57:36;;;;;;;8.97;6.17;;;;;;;;;;6301600;28;20097;-85
2023/06/02 14:00:40;;;;;;;6.80;4.82;;;;;;;;;;6301218;28;20173;-86
2023/06/02 14:03:43;;;;;;;10.32;5.72;;;;;;;;;;6303560;28;20079;-91
2023/06/02 14:06:44;;;;;;;7.40;5.00;;;;;;;;;;6303783;28;20129;-90
2023/06/02 14:09:46;;;;;;;5.53;4.90;;;;;;;;;;6305960;28;20488;-84
2023/06/02 14:12:49;;;;;;;7.97;4.65;;;;;;;;;;6301256;28;20048;-80
2023/06/02 14:15:52;;;;;;;6.45;4.65;;;;;;;;;;6303185;28;20071;-86
2023/06/02 14:18:53;;;;;;;7.03;4.75;;;;;;;;;;6303489;28;20336;-84
2023/06/02 14:21:55;;;;;;;8.63;4.97;;;;;;;;;;6301245;28;20056;-86
2023/06/02 14:24:57;;;;;;;6.07;5.20;;;;;;;;;;6305895;28;20100;-87
2023/06/02 14:28:00;;;;;;;5.97;4.93;;;;;;;;;;6306355;28;20060;-88
2023/06/02 14:31:01;;;;;;;7.07;4.63;;;;;;;;;;6299083;28;20048;-88
2023/06/02 14:34:04;;;;;;;6.00;5.28;;;;;;;;;;6307498;28;20090;-86
2023/06/02 14:37:06;;;;;;;5.85;5.07;;;;;;;;;;6300056;28;20142;-85
2023/06/02 14:40:09;;;;;;;8.07;4.78;;;;;;;;;;6299147;28;20109;-82
2023/06/02 14:43:12;;;;;;;8.75;5.13;;;;;;;;;;6301602;28;20044;-86
2023/06/02 14:46:14;;;;;;;7.93;5.38;;;;;;;;;;6302118;28;20048;-83
2023/06/02 14:49:15;;;;;;;4.70;4.20;;;;;;;;;;6299402;28;20053;-81
2023/06/02 14:52:17;;;;;;;4.70;4.30;;;;;;;;;;6303822;28;20045;-83
2023/06/02 14:55:19;;;;;;;9.32;4.57;;;;;;;;;;6299074;28;20078;-84
2023/06/02 14:58:23;;;;;;;4.85;4.35;;;;;;;;;;6306469;28;20143;-81
2023/06/02 15:01:24;;;;;;;5.80;4.25;;;;;;;;;;6301654;28;20082;-83
2023/06/02 15:04:26;;;;;;;11.77;5.13;;;;;;;;;;6298026;28;20060;-84
2023/06/02 15:07:28;;;;;;;4.80;4.20;;;;;;;;;;6297344;28;20055;-82
2023/06/02 15:10:30;;;;;;;5.88;4.45;;;;;;;;;;6304348;28;20052;-83
2023/06/02 15:13:33;;;;;;;;;;;;;;;;;;6302626;28;20307;-85
2023/06/02 15:16:35;;;;;;;7.82;4.20;;;;;;;;;;6301390;28;19935;-86
2023/06/02 15:19:38;;;;;;;5.85;4.00;;;;;;;;;;6303048;28;20072;-84
2023/06/02 15:22:39;;;;;;;8.05;4.28;;;;;;;;;;6300530;28;20056;-84
2023/06/02 15:25:41;;;;;;;6.70;3.80;;;;;;;;;;6301295;28;20332;-85
2023/06/02 15:28:45;;;;;;;6.10;4.25;;;;;;;;;;6300039;28;20058;-86
2023/06/02 15:31:47;;;;;;;7.85;4.30;;;;;;;;;;6302307;28;20056;-83
2023/06/02 15:34:48;;;;;;;4.55;4.15;;;;;;;;;;6297753;28;20058;-89
2023/06/02 15:37:50;;;;;;;4.78;4.00;;;;;;;;;;6297635;28;20056;-88
2023/06/02 15:40:52;;;;;;;5.10;3.70;;;;;;;;;;6302292;28;20055;-88
2023/06/02 15:43:55;;;;;;;4.38;3.97;;;;;;;;;;6301103;28;20048;-86
2023/06/02 15:46:56;;;;;;;6.65;4.25;;;;;;;;;;6301243;28;20374;-88
2023/06/02 15:50:00;;;;;;;6.47;4.30;;;;;;;;;;6300839;28;20044;-88
2023/06/02 15:53:02;;;;;;;8.52;4.32;;;;;;;;;;6300280;28;20052;-88
2023/06/02 15:56:04;;;;;;;4.20;3.60;;;;;;;;;;6302931;28;20052;-86
2023/06/02 15:59:16;;;;;;;9.60;4.27;;;;;;;;;;6298673;28;20359;-87
2023/06/02 16:02:17;;;;;;;4.50;3.65;;;;;;;;;;6299898;28;20069;-89
2023/06/02 16:05:19;;;;;;;8.45;4.47;;;;;;;;;;6299576;28;20429;-89
2023/06/02 16:08:21;;;;;;;10.52;4.07;;;;;;;;;;6301892;28;20044;-87
2023/06/02 16:11:22;;;;;;;5.13;4.03;;;;;;;;;;6301731;28;20044;-89
2023/06/02 16:14:25;;;;;;;6.38;4.20;;;;;;;;;;6301252;28;20317;-88
2023/06/02 16:17:27;;;;;;;5.55;4.05;;;;;;;;;;6302939;28;20071;-87
2023/06/02 16:20:30;;;;;;;4.97;3.58;;;;;;;;;;6300246;28;20083;-87
2023/06/02 16:23:31;;;;;;;;;;;;;;;;;;6303329;28;20095;-88
2023/06/02 16:26:33;;;;;;;7.55;4.00;;;;;;;;;;6301653;28;19965;-87
2023/06/02 16:29:36;;;;;;;6.05;4.32;;;;;;;;;;6297695;28;20040;-87
2023/06/02 16:32:38;;;;;;;6.70;3.97;;;;;;;;;;6298608;28;20244;-86
2023/06/02 16:35:40;;;;;;;10.90;4.32;;;;;;;;;;6301035;28;20244;-84
2023/06/02 16:38:41;;;;;;;5.07;4.10;;;;;;;;;;6299287;28;20060;-85
2023/06/02 16:41:43;;;;;;;8.05;4.70;;;;;;;;;;6298319;28;20313;-86
2023/06/02 16:44:46;;;;;;;4.75;4.25;;;;;;;;;;6299897;28;21523;-88
2023/06/02 16:47:51;;;;;;;6.30;4.63;;;;;;;;;;6297638;28;20060;-89
2023/06/02 16:50:52;;;;;;;;;;;;;;;;;;6300963;28;20055;-89
2023/06/02 16:53:54;;;;;;;9.40;5.20;;;;;;;;;;6296983;28;19924;-84
2023/06/02 16:56:55;;;;;;;10.93;5.30;;;;;;;;;;6297173;28;20382;-87
2023/06/02 16:59:58;;;;;;;10.00;5.95;;;;;;;;;;6299785;28;20340;-86
2023/06/02 17:03:00;;;;;;;;;;;;;;;;;;6300143;28;20052;-89
2023/06/02 17:06:02;;;;;;;8.45;6.07;;;;;;;;;;6300000;28;20097;-89
2023/06/02 17:09:03;;;;;;;10.82;5.70;;;;;;;;;;6299486;28;20107;-88
2023/06/02 17:12:06;;;;;;;8.75;5.75;;;;;;;;;;6301036;28;20060;-87
2023/06/02 17:15:11;;;;;;;7.60;5.57;;;;;;;;;;6298851;28;21085;-86
2023/06/02 17:18:13;;;;;;;8.85;5.53;;;;;;;;;;6300441;28;20116;-83
2023/06/02 17:21:15;;;;;;;7.03;6.18;;;;;;;;;;6302576;28;20060;-87
2023/06/02 17:24:17;;;;;;;7.78;5.07;;;;;;;;;;6301091;28;20056;-88
2023/06/02 17:27:19;;;;;;;9.77;4.50;;;;;;;;;;6296524;28;20057;-89
2023/06/02 17:30:22;;;;;;;46.88;8.73;;;;;;;;;;6298788;28;20119;-86
2023/06/02 17:33:24;;;;;;;;;;;;;;;;;;6298692;28;20063;-90
2023/06/02 17:36:26;;;;;;;25.85;6.13;;;;;;;;;;6302678;28;20278;-86
2023/06/02 17:39:27;;;;;;;15.23;5.22;;;;;;;;;;6299832;28;20049;-83
2023/06/02 17:42:29;;;;;;;10.30;4.50;;;;;;;;;;6299940;28;20044;-87
2023/06/02 17:45:32;;;;;;;33.80;6.70;;;;;;;;;;6299066;28;20165;-89
2023/06/02 17:48:34;;;;;;;13.85;6.03;;;;;;;;;;6295794;28;20044;-87
2023/06/02 17:51:36;;;;;;;13.18;6.35;;;;;;;;;;6302762;28;20044;-83
2023/06/02 17:54:37;;;;;;;15.70;7.75;;;;;;;;;;6298417;28;20192;-86
2023/06/02 17:57:39;;;;;;;10.75;8.27;;;;;;;;;;6298551;28;20060;-89
2023/06/02 18:00:42;;;;;;;14.45;8.68;;;;;;;;;;6297537;28;20268;-88
2023/06/02 18:03:44;;;;;;;11.32;7.50;;;;;;;;;;6300041;28;20056;-87
2023/06/02 18:06:45;;;;;;;10.32;8.32;;;;;;;;;;6299376;28;20063;-84
2023/06/02 18:09:47;;;;;;;12.20;8.60;;;;;;;;;;6299857;28;20332;-84
2023/06/02 18:12:49;;;;;;;14.00;9.57;;;;;;;;;;6296379;28;20046;-86
2023/06/02 18:15:52;;;;;;;11.73;9.10;;;;;;;;;;6297592;28;20055;-94
2023/06/02 18:18:53;;;;;;;15.90;8.70;;;;;;;;;;6299414;28;20081;-83
2023/06/02 18:21:55;;;;;;;13.57;9.20;;;;;;;;;;6299602;28;20267;-85